createdAt,value
2022-09-10T00:01:27.612Z,90.71
2022-09-10T00:03:54.870Z,90.58
2022-09-10T00:06:24.951Z,90.86
2022-09-10T00:08:52.753Z,90.99
2022-09-10T00:11:20.881Z,90.94
2022-09-10T00:13:50.702Z,90.89
2022-09-10T00:16:20.670Z,91.05
2022-09-10T00:18:50.172Z,91.10
2022-09-10T00:21:20.985Z,91.27
2022-09-10T00:23:48.478Z,91.25
2022-09-10T00:26:22.361Z,91.45
2022-09-10T00:28:51.141Z,91.34
2022-09-10T00:31:21.921Z,91.33
2022-09-10T00:33:52.518Z,90.85
2022-09-10T00:36:21.915Z,91.01
2022-09-10T00:38:50.712Z,91.26
2022-09-10T00:41:19.497Z,91.08
2022-09-10T00:43:57.959Z,91.44
2022-09-10T00:46:47.864Z,91.47
2022-09-10T00:49:34.778Z,91.40
2022-09-10T00:52:02.607Z,91.49
2022-09-10T00:54:34.605Z,91.13
2022-09-10T00:57:06.245Z,91.18
2022-09-10T00:59:33.493Z,91.30
2022-09-10T01:02:01.166Z,91.36
2022-09-10T01:04:32.375Z,91.46
2022-09-10T01:07:00.491Z,91.70
2022-09-10T01:09:28.755Z,91.48
2022-09-10T01:12:39.888Z,91.46
2022-09-10T01:15:24.657Z,90.89
2022-09-10T01:18:11.531Z,91.12
2022-09-10T01:21:10.984Z,90.97
2022-09-10T01:23:52.896Z,91.00
2022-09-10T01:26:28.366Z,91.22
2022-09-10T01:29:01.312Z,91.44
2022-09-10T01:31:37.041Z,91.75
2022-09-10T01:34:16.447Z,91.09
2022-09-10T01:36:48.167Z,91.41
2022-09-10T01:39:20.225Z,91.71
2022-09-10T01:41:49.247Z,91.17
2022-09-10T01:44:43.940Z,91.67
2022-09-10T01:47:45.483Z,91.84
2022-09-10T01:50:43.437Z,92.00
2022-09-10T01:53:14.030Z,92.14
2022-09-10T01:55:59.995Z,92.32
2022-09-10T01:58:26.529Z,92.66
2022-09-10T02:01:05.646Z,92.84
2022-09-10T02:03:36.173Z,92.51
2022-09-10T02:06:04.799Z,92.98
2022-09-10T02:08:39.375Z,92.94
2022-09-10T02:11:11.979Z,93.03
2022-09-10T02:13:43.755Z,92.94
2022-09-10T02:16:15.331Z,93.34
2022-09-10T02:18:42.728Z,93.11
2022-09-10T02:21:12.234Z,93.74
2022-09-10T02:23:50.628Z,93.66
2022-09-10T02:26:19.854Z,93.81
2022-09-10T02:28:49.591Z,93.50
2022-09-10T02:31:18.675Z,93.29
2022-09-10T02:33:45.439Z,93.85
2022-09-10T02:36:11.991Z,93.67
2022-09-10T02:38:38.624Z,93.57
2022-09-10T02:41:05.227Z,93.50
2022-09-10T02:43:31.758Z,93.47
2022-09-10T02:46:02.418Z,93.83
2022-09-10T02:48:31.202Z,93.70
2022-09-10T02:50:58.089Z,93.83
2022-09-10T02:53:26.065Z,93.62
2022-09-10T02:55:52.601Z,93.86
2022-09-10T02:58:26.369Z,93.79
2022-09-10T03:00:53.454Z,94.08
2022-09-10T03:03:19.974Z,93.74
2022-09-10T03:05:48.909Z,94.11
2022-09-10T03:08:15.447Z,93.92
2022-09-10T03:10:41.962Z,93.96
2022-09-10T03:13:08.492Z,94.19
2022-09-10T03:15:38.259Z,93.78
2022-09-10T03:18:05.711Z,93.84
2022-09-10T03:20:32.342Z,93.96
2022-09-10T03:23:01.514Z,93.85
2022-09-10T03:25:28.034Z,93.97
2022-09-10T03:27:54.687Z,94.15
2022-09-10T03:30:23.767Z,94.33
2022-09-10T03:32:53.685Z,94.37
2022-09-10T03:35:20.269Z,94.20
2022-09-10T03:37:49.198Z,94.38
2022-09-10T03:40:18.221Z,94.35
2022-09-10T03:42:45.985Z,94.43
2022-09-10T03:45:13.713Z,94.76
2022-09-10T03:47:40.678Z,94.65
2022-09-10T03:50:07.684Z,94.84
2022-09-10T03:52:34.178Z,94.84
2022-09-10T03:55:00.744Z,95.04
2022-09-10T03:57:30.442Z,94.88
2022-09-10T03:59:56.987Z,94.75
2022-09-10T04:02:23.553Z,95.12
2022-09-10T04:04:54.854Z,95.06
2022-09-10T04:07:23.630Z,95.04
2022-09-10T04:09:50.084Z,95.41
2022-09-10T04:12:17.009Z,95.22
2022-09-10T04:14:45.497Z,95.42
2022-09-10T04:17:12.841Z,95.60
2022-09-10T04:19:40.229Z,95.48
2022-09-10T04:22:11.550Z,95.56
2022-09-10T04:24:40.781Z,95.64
2022-09-10T04:27:07.376Z,95.79
2022-09-10T04:29:33.874Z,95.88
2022-09-10T04:32:03.435Z,95.58
2022-09-10T04:34:29.935Z,95.72
2022-09-10T04:36:56.419Z,95.72
2022-09-10T04:39:22.906Z,95.67
2022-09-10T04:41:49.438Z,95.96
2022-09-10T04:44:20.057Z,95.95
2022-09-10T04:46:47.732Z,95.95
2022-09-10T04:49:16.523Z,96.14
2022-09-10T04:51:45.718Z,96.31
2022-09-10T04:54:15.120Z,96.08
2022-09-10T04:56:46.575Z,96.10
2022-09-10T04:59:15.330Z,95.98
2022-09-10T05:01:42.168Z,95.92
2022-09-10T05:04:11.374Z,96.03
2022-09-10T05:06:37.946Z,96.02
2022-09-10T05:09:04.421Z,96.22
2022-09-10T05:11:33.466Z,96.10
2022-09-10T05:14:02.190Z,96.07
2022-09-10T05:16:28.834Z,96.31
2022-09-10T05:18:58.741Z,96.30
2022-09-10T05:21:25.252Z,96.33
2022-09-10T05:23:51.834Z,96.45
2022-09-10T05:26:18.326Z,96.40
2022-09-10T05:28:44.840Z,96.17
2022-09-10T05:31:13.965Z,96.35
2022-09-10T05:33:40.809Z,96.63
2022-09-10T05:36:11.657Z,96.65
2022-09-10T05:38:40.096Z,96.52
2022-09-10T05:41:10.849Z,96.59
2022-09-10T05:43:37.578Z,96.67
2022-09-10T05:46:04.930Z,96.44
2022-09-10T05:48:31.629Z,96.18
2022-09-10T05:51:04.241Z,96.22
2022-09-10T05:53:34.158Z,96.12
2022-09-10T05:56:11.120Z,95.94
2022-09-10T05:58:40.413Z,95.89
2022-09-10T06:01:09.328Z,95.86
2022-09-10T06:03:36.955Z,95.86
2022-09-10T06:06:07.006Z,95.73
2022-09-10T06:08:37.920Z,95.51
2022-09-10T06:11:08.423Z,95.20
2022-09-10T06:13:35.765Z,94.97
2022-09-10T06:16:03.064Z,94.66
2022-09-10T06:18:30.369Z,95.07
2022-09-10T06:21:13.717Z,95.10
2022-09-10T06:23:40.293Z,95.01
2022-09-10T06:26:10.299Z,95.46
2022-09-10T06:28:37.660Z,95.49
2022-09-10T06:31:08.459Z,95.61
2022-09-10T06:33:37.541Z,95.48
2022-09-10T06:36:04.275Z,95.71
2022-09-10T06:38:36.653Z,95.81
2022-09-10T06:41:08.226Z,95.69
2022-09-10T06:43:37.960Z,95.87
2022-09-10T06:46:31.984Z,95.82
2022-09-10T06:49:04.278Z,95.75
2022-09-10T06:51:31.709Z,95.81
2022-09-10T06:54:01.469Z,95.70
2022-09-10T06:57:53.505Z,95.76
2022-09-10T06:59:25.140Z,95.50
2022-09-10T07:01:51.818Z,95.35
2022-09-10T07:04:22.046Z,95.09
2022-09-10T07:06:48.897Z,95.45
2022-09-10T07:09:17.978Z,94.93
2022-09-10T07:11:46.710Z,94.94
2022-09-10T07:14:13.927Z,95.33
2022-09-10T07:16:44.343Z,95.28
2022-09-10T07:19:13.433Z,95.52
2022-09-10T07:21:39.967Z,95.24
2022-09-10T07:24:06.830Z,95.25
2022-09-10T07:26:33.332Z,95.67
2022-09-10T07:29:00.283Z,95.52
2022-09-10T07:31:30.353Z,95.19
2022-09-10T07:33:58.252Z,94.75
2022-09-10T07:36:25.638Z,95.08
2022-09-10T07:39:03.490Z,95.30
2022-09-10T07:41:33.127Z,95.02
2022-09-10T07:43:59.722Z,95.25
2022-09-10T07:46:31.011Z,95.02
2022-09-10T07:49:01.705Z,94.89
2022-09-10T07:51:33.102Z,94.03
2022-09-10T07:54:00.195Z,93.62
2022-09-10T07:56:27.224Z,92.94
2022-09-10T07:58:57.605Z,93.04
2022-09-10T08:01:24.242Z,93.04
2022-09-10T08:03:50.950Z,93.02
2022-09-10T08:06:17.965Z,93.37
2022-09-10T08:08:46.009Z,93.27
2022-09-10T08:11:21.369Z,93.19
2022-09-10T08:14:04.492Z,91.20
2022-09-10T08:16:41.239Z,89.77
2022-09-10T08:19:15.378Z,89.59
2022-09-10T08:21:42.020Z,89.94
2022-09-10T08:24:13.266Z,89.70
2022-09-10T08:26:43.736Z,89.98
2022-09-10T08:29:13.291Z,86.97
2022-09-10T08:31:41.242Z,86.21
2022-09-10T08:34:13.862Z,84.12
2022-09-10T08:36:40.582Z,84.66
2022-09-10T08:39:08.536Z,86.36
2022-09-10T08:41:41.285Z,87.15
2022-09-10T08:44:37.338Z,88.42
2022-09-10T08:47:22.425Z,88.67
2022-09-10T08:49:53.618Z,89.03
2022-09-10T08:52:31.915Z,89.43
2022-09-10T08:55:28.725Z,89.98
2022-09-10T08:58:24.404Z,89.98
2022-09-10T09:01:05.473Z,89.27
2022-09-10T09:03:45.650Z,88.21
2022-09-10T09:06:46.527Z,88.19
2022-09-10T09:09:17.800Z,88.14
2022-09-10T09:11:47.460Z,87.39
2022-09-10T09:14:19.411Z,85.28
2022-09-10T09:17:07.626Z,84.44
2022-09-10T09:19:58.263Z,84.75
2022-09-10T09:22:44.081Z,85.75
2022-09-10T09:25:41.024Z,85.81
2022-09-10T09:28:19.241Z,84.58
2022-09-10T09:30:50.813Z,85.06
2022-09-10T09:33:23.301Z,85.53
2022-09-10T09:35:57.218Z,85.96
2022-09-10T09:38:50.107Z,86.40
2022-09-10T09:41:33.460Z,86.32
2022-09-10T09:44:16.807Z,86.11
2022-09-10T09:46:45.513Z,86.36
2022-09-10T09:49:19.246Z,86.71
2022-09-10T09:51:55.151Z,84.65
2022-09-10T09:57:22.224Z,82.05
2022-09-10T09:59:56.816Z,82.33
2022-09-10T10:02:28.330Z,82.56
2022-09-10T10:05:07.961Z,82.70
2022-09-10T10:07:37.907Z,81.98
2022-09-10T10:10:19.958Z,82.04
2022-09-10T10:12:51.265Z,81.40
2022-09-10T10:15:43.415Z,80.14
2022-09-10T10:18:23.295Z,80.21
2022-09-10T10:21:11.648Z,81.48
2022-09-10T10:23:40.273Z,82.90
2022-09-10T10:26:22.367Z,84.99
2022-09-10T10:29:01.481Z,86.16
2022-09-10T10:31:40.562Z,86.65
2022-09-10T10:34:10.132Z,87.86
2022-09-10T10:36:43.508Z,88.48
2022-09-10T10:39:36.511Z,89.35
2022-09-10T10:42:13.636Z,89.53
2022-09-10T10:44:48.013Z,89.74
2022-09-10T10:47:17.374Z,89.76
2022-09-10T10:49:46.738Z,89.66
2022-09-10T10:52:41.838Z,89.95
2022-09-10T10:55:25.948Z,89.59
2022-09-10T10:58:17.661Z,89.33
2022-09-10T11:00:55.816Z,89.38
2022-09-10T11:03:31.937Z,89.02
2022-09-10T11:06:08.269Z,89.58
2022-09-10T11:08:39.618Z,89.68
2022-09-10T11:11:20.856Z,89.61
2022-09-10T11:13:59.558Z,89.63
2022-09-10T11:16:58.498Z,89.66
2022-09-10T11:20:28.979Z,88.98
2022-09-10T11:23:11.098Z,88.41
2022-09-10T11:25:52.203Z,87.97
2022-09-10T11:28:26.699Z,87.49
2022-09-10T11:31:09.987Z,87.55
2022-09-10T11:33:57.286Z,86.31
2022-09-10T11:36:56.650Z,85.39
2022-09-10T11:39:45.744Z,84.00
2022-09-10T11:42:31.497Z,83.38
2022-09-10T11:45:11.874Z,82.67
2022-09-10T11:47:53.574Z,82.49
2022-09-10T11:50:41.326Z,80.17
2022-09-10T11:53:18.169Z,79.95
2022-09-10T11:56:14.981Z,79.88
2022-09-10T11:59:02.101Z,80.07
2022-09-10T12:01:50.109Z,81.34
2022-09-10T12:04:40.102Z,81.24
2022-09-10T12:09:15.308Z,82.13
2022-09-10T12:10:36.584Z,81.99
2022-09-10T12:13:16.081Z,82.24
2022-09-10T12:16:30.517Z,82.30
2022-09-10T12:19:00.631Z,81.81
2022-09-10T12:21:53.575Z,82.55
2022-09-10T12:24:36.319Z,81.43
2022-09-10T12:27:11.566Z,79.96
2022-09-10T12:29:44.175Z,79.42
2022-09-10T12:32:17.024Z,78.53
2022-09-10T12:34:49.690Z,77.64
2022-09-10T12:37:31.979Z,77.04
2022-09-10T12:40:29.739Z,77.28
2022-09-10T12:43:40.985Z,77.78
2022-09-10T12:46:13.585Z,76.80
2022-09-10T12:48:58.425Z,76.84
2022-09-10T12:51:52.617Z,75.86
2022-09-10T12:54:49.979Z,74.80
2022-09-10T12:57:26.136Z,74.57
2022-09-10T13:00:26.714Z,75.37
2022-09-10T13:03:18.565Z,75.63
2022-09-10T13:05:50.220Z,74.25
2022-09-10T13:08:20.765Z,73.51
2022-09-10T13:11:01.220Z,72.52
2022-09-10T13:13:40.514Z,73.14
2022-09-10T13:16:19.188Z,73.63
2022-09-10T13:18:57.084Z,74.76
2022-09-10T13:21:31.166Z,75.92
2022-09-10T13:24:47.871Z,77.69
2022-09-10T13:27:17.648Z,78.24
2022-09-10T13:29:48.138Z,78.34
2022-09-10T13:32:27.336Z,78.20
2022-09-10T13:35:06.266Z,78.96
2022-09-10T13:38:13.774Z,77.87
2022-09-10T13:41:22.780Z,78.03
2022-09-10T13:44:13.630Z,77.60
2022-09-10T13:47:03.309Z,77.23
2022-09-10T13:50:07.908Z,76.76
2022-09-10T13:52:38.388Z,76.27
2022-09-10T13:55:09.097Z,75.94
2022-09-10T13:57:45.040Z,75.17
2022-09-10T14:00:40.562Z,74.48
2022-09-10T14:03:22.289Z,74.13
2022-09-10T14:06:12.239Z,73.66
2022-09-10T14:08:57.234Z,72.89
2022-09-10T14:11:47.511Z,71.87
2022-09-10T14:14:27.457Z,72.05
2022-09-10T14:17:11.851Z,71.45
2022-09-10T14:19:45.126Z,71.69
2022-09-10T14:22:23.285Z,72.42
2022-09-10T14:24:58.129Z,72.37
2022-09-10T14:27:32.591Z,71.99
2022-09-10T14:30:23.403Z,71.31
2022-09-10T14:32:51.074Z,70.58
2022-09-10T14:35:41.075Z,70.08
2022-09-10T14:38:47.684Z,69.69
2022-09-10T14:41:28.188Z,69.46
2022-09-10T14:44:27.540Z,71.07
2022-09-10T14:47:12.407Z,69.76
2022-09-10T14:49:47.683Z,70.77
2022-09-10T14:52:15.906Z,71.58
2022-09-10T14:54:45.079Z,72.20
2022-09-10T14:57:15.113Z,72.50
2022-09-10T14:59:45.590Z,72.01
2022-09-10T15:02:17.369Z,71.87
2022-09-10T15:04:49.980Z,72.63
2022-09-10T15:07:16.588Z,72.64
2022-09-10T15:09:44.525Z,72.12
2022-09-10T15:12:28.870Z,72.15
2022-09-10T15:14:59.909Z,72.64
2022-09-10T15:17:28.542Z,73.02
2022-09-10T15:19:56.367Z,73.23
2022-09-10T15:22:26.213Z,73.27
2022-09-10T15:25:12.845Z,73.04
2022-09-10T15:27:41.591Z,72.38
2022-09-10T15:30:08.499Z,72.27
2022-09-10T15:32:37.524Z,70.57
2022-09-10T15:35:05.142Z,69.45
2022-09-10T15:37:34.227Z,69.39
2022-09-10T15:40:01.175Z,69.44
2022-09-10T15:42:27.753Z,69.06
2022-09-10T15:44:57.427Z,68.63
2022-09-10T15:47:24.216Z,68.84
2022-09-10T15:49:53.470Z,68.36
2022-09-10T15:52:20.063Z,68.34
2022-09-10T15:54:46.787Z,68.17
2022-09-10T15:57:13.347Z,67.85
2022-09-10T15:59:40.669Z,67.71
2022-09-10T16:02:14.452Z,67.87
2022-09-10T16:04:43.051Z,67.65
2022-09-10T16:07:30.026Z,68.01
2022-09-10T16:10:01.577Z,68.27
2022-09-10T16:12:29.128Z,68.21
2022-09-10T16:14:56.502Z,68.16
2022-09-10T16:17:23.362Z,68.09
2022-09-10T16:19:51.348Z,68.00
2022-09-10T16:22:20.962Z,67.83
2022-09-10T16:24:47.558Z,68.18
2022-09-10T16:27:17.381Z,68.25
2022-09-10T16:29:44.044Z,68.33
2022-09-10T16:32:10.918Z,67.78
2022-09-10T16:34:39.773Z,68.06
2022-09-10T16:37:06.342Z,68.06
2022-09-10T16:39:32.914Z,68.00
2022-09-10T16:41:59.422Z,67.66
2022-09-10T16:44:26.041Z,68.13
2022-09-10T16:46:52.628Z,68.52
2022-09-10T16:49:19.826Z,68.57
2022-09-10T16:51:51.824Z,68.76
2022-09-10T16:54:22.400Z,69.00
2022-09-10T16:56:50.460Z,69.55
2022-09-10T16:59:22.544Z,69.52
2022-09-10T17:01:50.452Z,70.10
2022-09-10T17:04:27.524Z,69.67
2022-09-10T17:06:55.906Z,70.00
2022-09-10T17:09:22.650Z,69.77
2022-09-10T17:11:49.285Z,69.68
2022-09-10T17:14:18.138Z,68.98
2022-09-10T17:16:48.752Z,69.20
2022-09-10T17:19:23.581Z,69.01
2022-09-10T17:21:52.932Z,69.08
2022-09-10T17:24:24.139Z,68.76
2022-09-10T17:26:51.888Z,69.46
2022-09-10T17:29:23.075Z,69.45
2022-09-10T17:31:55.673Z,69.15
2022-09-10T17:34:24.338Z,69.82
2022-09-10T17:36:51.368Z,70.25
2022-09-10T17:39:18.501Z,70.18
2022-09-10T17:41:45.458Z,70.54
2022-09-10T17:44:12.507Z,70.76
2022-09-10T17:46:44.983Z,70.56
2022-09-10T17:49:16.630Z,71.04
2022-09-10T17:51:44.735Z,71.11
2022-09-10T17:54:14.912Z,71.49
2022-09-10T17:56:44.083Z,71.49
2022-09-10T17:59:14.830Z,71.59
2022-09-10T18:01:43.647Z,71.56
2022-09-10T18:04:17.721Z,72.20
2022-09-10T18:06:47.872Z,71.88
2022-09-10T18:09:17.007Z,72.07
2022-09-10T18:11:43.658Z,72.46
2022-09-10T18:14:21.568Z,72.56
2022-09-10T18:16:51.401Z,72.97
2022-09-10T18:19:20.980Z,73.23
2022-09-10T18:21:48.451Z,73.60
2022-09-10T18:24:19.440Z,74.34
2022-09-10T18:26:48.198Z,74.76
2022-09-10T18:29:30.041Z,75.10
2022-09-10T18:31:58.591Z,74.78
2022-09-10T18:34:27.854Z,74.84
2022-09-10T18:36:57.544Z,75.09
2022-09-10T18:39:27.316Z,75.40
2022-09-10T18:41:54.705Z,75.62
2022-09-10T18:44:24.895Z,75.96
2022-09-10T18:46:53.023Z,76.11
2022-09-10T18:49:24.593Z,76.43
2022-09-10T18:51:52.723Z,76.62
2022-09-10T18:54:23.190Z,76.92
2022-09-10T18:56:51.238Z,77.21
2022-09-10T18:59:23.803Z,77.42
2022-09-10T19:01:52.885Z,77.61
2022-09-10T19:04:23.821Z,78.25
2022-09-10T19:06:50.465Z,78.38
2022-09-10T19:09:24.029Z,78.69
2022-09-10T19:11:55.917Z,78.76
2022-09-10T19:14:26.356Z,78.62
2022-09-10T19:16:55.150Z,78.89
2022-09-10T19:19:24.299Z,79.08
2022-09-10T19:21:54.251Z,79.26
2022-09-10T19:24:37.805Z,79.31
2022-09-10T19:27:10.444Z,79.26
2022-09-10T19:29:37.147Z,79.21
2022-09-10T19:32:03.686Z,79.31
2022-09-10T19:34:31.132Z,79.17
2022-09-10T19:36:57.608Z,79.29
2022-09-10T19:39:24.175Z,79.40
2022-09-10T19:41:50.783Z,79.29
2022-09-10T19:44:18.227Z,79.10
2022-09-10T19:46:45.352Z,79.25
2022-09-10T19:49:12.644Z,79.34
2022-09-10T19:51:40.635Z,79.60
2022-09-10T19:54:07.831Z,79.84
2022-09-10T19:56:37.819Z,80.23
2022-09-10T19:59:08.711Z,80.34
2022-09-10T20:01:41.375Z,80.53
2022-09-10T20:04:10.304Z,80.81
2022-09-10T20:06:40.117Z,81.00
2022-09-10T20:09:08.098Z,80.70
2022-09-10T20:11:35.559Z,81.17
2022-09-10T20:14:13.933Z,81.38
2022-09-10T20:16:43.284Z,81.23
2022-09-10T20:19:13.115Z,81.38
2022-09-10T20:21:42.419Z,81.48
2022-09-10T20:24:10.148Z,81.68
2022-09-10T20:26:38.909Z,81.87
2022-09-10T20:29:08.027Z,81.87
2022-09-10T20:31:37.340Z,81.86
2022-09-10T20:34:08.688Z,81.71
2022-09-10T20:36:37.963Z,81.80
2022-09-10T20:39:06.473Z,81.94
2022-09-10T20:41:33.389Z,81.80
2022-09-10T20:44:01.477Z,82.04
2022-09-10T20:46:30.434Z,82.28
2022-09-10T20:49:03.228Z,82.25
2022-09-10T20:51:33.253Z,82.12
2022-09-10T20:54:00.581Z,82.04
2022-09-10T20:56:27.609Z,81.74
2022-09-10T20:58:54.290Z,81.66
2022-09-10T21:01:25.821Z,81.81
2022-09-10T21:03:54.412Z,81.97
2022-09-10T21:06:25.666Z,82.11
2022-09-10T21:08:52.617Z,82.02
2022-09-10T21:11:21.034Z,82.34
2022-09-10T21:13:53.226Z,82.56
2022-09-10T21:16:23.123Z,82.70
2022-09-10T21:18:54.868Z,82.65
2022-09-10T21:21:26.323Z,82.89
2022-09-10T21:23:55.622Z,83.01
2022-09-10T21:26:25.311Z,83.35
2022-09-10T21:28:59.914Z,83.37
2022-09-10T21:31:30.233Z,83.51
2022-09-10T21:34:02.453Z,83.51
2022-09-10T21:36:31.110Z,83.59
2022-09-10T21:39:01.841Z,83.96
2022-09-10T21:41:34.889Z,83.98
2022-09-10T21:44:06.088Z,84.24
2022-09-10T21:46:33.344Z,84.38
2022-09-10T21:49:00.677Z,84.47
2022-09-10T21:51:29.394Z,84.57
2022-09-10T21:53:57.065Z,84.57
2022-09-10T21:56:25.956Z,85.01
2022-09-10T21:58:53.672Z,84.81
2022-09-10T22:01:22.875Z,85.11
2022-09-10T22:03:50.209Z,85.05
2022-09-10T22:06:24.659Z,85.06
2022-09-10T22:08:54.541Z,85.23
2022-09-10T22:11:24.232Z,85.38
2022-09-10T22:13:55.803Z,85.39
2022-09-10T22:16:23.036Z,85.53
2022-09-10T22:18:50.747Z,85.85
2022-09-10T22:21:18.061Z,86.26
2022-09-10T22:23:45.178Z,86.55
2022-09-10T22:26:16.717Z,86.33
2022-09-10T22:28:43.674Z,86.27
2022-09-10T22:31:19.334Z,86.49
2022-09-10T22:33:53.072Z,86.59
2022-09-10T22:36:26.649Z,86.94
2022-09-10T22:39:01.209Z,86.69
2022-09-10T22:41:29.201Z,86.86
2022-09-10T22:43:57.023Z,87.05
2022-09-10T22:46:24.074Z,87.15
2022-09-10T22:48:52.937Z,87.32
2022-09-10T22:51:23.810Z,87.38
2022-09-10T22:53:52.531Z,87.51
2022-09-10T22:56:22.111Z,87.51
2022-09-10T22:58:51.630Z,87.44
2022-09-10T23:01:20.950Z,87.84
2022-09-10T23:03:50.261Z,87.77
2022-09-10T23:06:24.733Z,88.04
2022-09-10T23:08:53.603Z,88.14
2022-09-10T23:11:21.657Z,88.25
2022-09-10T23:13:54.154Z,88.30
2022-09-10T23:16:26.169Z,88.28
2022-09-10T23:18:55.265Z,88.31
2022-09-10T23:21:24.219Z,88.65
2022-09-10T23:24:12.817Z,88.62
2022-09-10T23:26:39.676Z,88.84
2022-09-10T23:29:06.663Z,88.99
2022-09-10T23:31:36.100Z,89.20
2022-09-10T23:34:09.710Z,89.33
2022-09-10T23:36:39.210Z,89.45
2022-09-10T23:39:13.018Z,89.58
2022-09-10T23:41:41.103Z,89.06
2022-09-10T23:44:09.003Z,89.13
2022-09-10T23:46:36.710Z,89.18
2022-09-10T23:49:04.751Z,88.93
2022-09-10T23:51:31.985Z,89.05
2022-09-10T23:53:59.529Z,88.91
2022-09-10T23:56:28.352Z,89.32
2022-09-10T23:58:55.790Z,89.00
